sensor_id;sensor_type;location;lat;lon;timestamp;P1;durP1;ratioP1;P2;durP2;ratioP2
81967;SDS011;71468;56.880;60.616;2023-07-30T00:00:25;29.67;;;18.50;;
81967;SDS011;71468;56.880;60.616;2023-07-30T00:02:52;29.73;;;18.02;;
81967;SDS011;71468;56.880;60.616;2023-07-30T00:05:19;30.30;;;17.63;;
81967;SDS011;71468;56.880;60.616;2023-07-30T00:07:46;33.85;;;18.95;;
81967;SDS011;71468;56.880;60.616;2023-07-30T00:10:12;31.77;;;18.27;;
81967;SDS011;71468;56.880;60.616;2023-07-30T00:12:39;31.88;;;18.10;;
81967;SDS011;71468;56.880;60.616;2023-07-30T00:15:07;26.95;;;17.38;;
81967;SDS011;71468;56.880;60.616;2023-07-30T00:17:34;31.70;;;18.85;;
81967;SDS011;71468;56.880;60.616;2023-07-30T00:20:00;28.23;;;17.92;;
81967;SDS011;71468;56.880;60.616;2023-07-30T00:22:27;34.60;;;18.13;;
81967;SDS011;71468;56.880;60.616;2023-07-30T00:24:53;34.53;;;18.90;;
81967;SDS011;71468;56.880;60.616;2023-07-30T00:27:20;31.48;;;18.75;;
81967;SDS011;71468;56.880;60.616;2023-07-30T00:29:47;39.25;;;18.88;;
81967;SDS011;71468;56.880;60.616;2023-07-30T00:32:13;28.58;;;18.02;;
81967;SDS011;71468;56.880;60.616;2023-07-30T00:34:43;36.17;;;19.42;;
81967;SDS011;71468;56.880;60.616;2023-07-30T00:37:11;41.22;;;20.30;;
81967;SDS011;71468;56.880;60.616;2023-07-30T00:39:38;39.75;;;19.75;;
81967;SDS011;71468;56.880;60.616;2023-07-30T00:42:04;38.45;;;20.40;;
81967;SDS011;71468;56.880;60.616;2023-07-30T00:44:31;40.78;;;19.25;;
81967;SDS011;71468;56.880;60.616;2023-07-30T00:46:57;33.10;;;20.67;;
81967;SDS011;71468;56.880;60.616;2023-07-30T00:49:25;33.35;;;19.80;;
81967;SDS011;71468;56.880;60.616;2023-07-30T00:51:51;38.20;;;20.45;;
81967;SDS011;71468;56.880;60.616;2023-07-30T00:54:18;34.75;;;21.08;;
81967;SDS011;71468;56.880;60.616;2023-07-30T00:56:47;34.78;;;21.20;;
81967;SDS011;71468;56.880;60.616;2023-07-30T00:59:17;38.47;;;21.27;;
81967;SDS011;71468;56.880;60.616;2023-07-30T01:01:44;39.55;;;21.25;;
81967;SDS011;71468;56.880;60.616;2023-07-30T01:04:13;37.50;;;20.30;;
81967;SDS011;71468;56.880;60.616;2023-07-30T01:06:40;35.97;;;21.05;;
81967;SDS011;71468;56.880;60.616;2023-07-30T01:09:08;33.15;;;21.30;;
81967;SDS011;71468;56.880;60.616;2023-07-30T01:11:35;38.22;;;22.10;;
81967;SDS011;71468;56.880;60.616;2023-07-30T01:14:03;35.08;;;20.25;;
81967;SDS011;71468;56.880;60.616;2023-07-30T01:16:31;33.10;;;20.70;;
81967;SDS011;71468;56.880;60.616;2023-07-30T01:18:58;33.80;;;20.88;;
81967;SDS011;71468;56.880;60.616;2023-07-30T01:21:25;35.63;;;19.75;;
81967;SDS011;71468;56.880;60.616;2023-07-30T01:23:51;36.30;;;20.05;;
81967;SDS011;71468;56.880;60.616;2023-07-30T01:26:22;39.03;;;19.73;;
81967;SDS011;71468;56.880;60.616;2023-07-30T01:28:54;31.52;;;18.88;;
81967;SDS011;71468;56.880;60.616;2023-07-30T01:31:23;34.75;;;19.33;;
81967;SDS011;71468;56.880;60.616;2023-07-30T01:33:52;35.40;;;18.88;;
81967;SDS011;71468;56.880;60.616;2023-07-30T01:36:21;27.20;;;17.85;;
81967;SDS011;71468;56.880;60.616;2023-07-30T01:38:49;29.17;;;18.65;;
81967;SDS011;71468;56.880;60.616;2023-07-30T01:41:16;29.70;;;18.60;;
81967;SDS011;71468;56.880;60.616;2023-07-30T01:43:43;31.88;;;18.60;;
81967;SDS011;71468;56.880;60.616;2023-07-30T01:46:09;27.25;;;17.98;;
81967;SDS011;71468;56.880;60.616;2023-07-30T01:48:36;29.73;;;17.45;;
81967;SDS011;71468;56.880;60.616;2023-07-30T01:51:02;34.17;;;18.30;;
81967;SDS011;71468;56.880;60.616;2023-07-30T01:53:29;40.45;;;18.65;;
81967;SDS011;71468;56.880;60.616;2023-07-30T01:55:55;26.23;;;16.92;;
81967;SDS011;71468;56.880;60.616;2023-07-30T01:58:22;29.65;;;17.92;;
81967;SDS011;71468;56.880;60.616;2023-07-30T02:00:49;22.50;;;14.88;;
81967;SDS011;71468;56.880;60.616;2023-07-30T02:03:15;28.38;;;15.40;;
81967;SDS011;71468;56.880;60.616;2023-07-30T02:05:42;25.75;;;16.13;;
81967;SDS011;71468;56.880;60.616;2023-07-30T02:08:09;24.83;;;15.68;;
81967;SDS011;71468;56.880;60.616;2023-07-30T02:10:35;21.75;;;14.55;;
81967;SDS011;71468;56.880;60.616;2023-07-30T02:13:02;21.50;;;14.18;;
81967;SDS011;71468;56.880;60.616;2023-07-30T02:15:28;22.67;;;13.95;;
81967;SDS011;71468;56.880;60.616;2023-07-30T02:17:55;19.63;;;13.68;;
81967;SDS011;71468;56.880;60.616;2023-07-30T02:20:21;20.30;;;14.57;;
81967;SDS011;71468;56.880;60.616;2023-07-30T02:22:48;21.52;;;13.88;;
81967;SDS011;71468;56.880;60.616;2023-07-30T02:25:14;21.80;;;14.80;;
81967;SDS011;71468;56.880;60.616;2023-07-30T02:27:41;21.88;;;14.75;;
81967;SDS011;71468;56.880;60.616;2023-07-30T02:30:08;21.88;;;14.73;;
81967;SDS011;71468;56.880;60.616;2023-07-30T02:32:35;22.27;;;13.75;;
81967;SDS011;71468;56.880;60.616;2023-07-30T02:35:01;20.42;;;14.02;;
81967;SDS011;71468;56.880;60.616;2023-07-30T02:37:28;22.48;;;14.48;;
81967;SDS011;71468;56.880;60.616;2023-07-30T02:39:54;21.38;;;14.35;;
81967;SDS011;71468;56.880;60.616;2023-07-30T02:42:21;20.30;;;14.15;;
81967;SDS011;71468;56.880;60.616;2023-07-30T02:44:47;23.13;;;15.27;;
81967;SDS011;71468;56.880;60.616;2023-07-30T02:47:14;21.83;;;14.43;;
81967;SDS011;71468;56.880;60.616;2023-07-30T02:49:40;23.63;;;14.65;;
81967;SDS011;71468;56.880;60.616;2023-07-30T02:52:07;23.13;;;15.13;;
81967;SDS011;71468;56.880;60.616;2023-07-30T02:54:33;23.60;;;14.88;;
81967;SDS011;71468;56.880;60.616;2023-07-30T02:57:00;21.25;;;14.98;;
81967;SDS011;71468;56.880;60.616;2023-07-30T02:59:27;27.02;;;14.98;;
81967;SDS011;71468;56.880;60.616;2023-07-30T03:01:53;22.40;;;14.57;;
81967;SDS011;71468;56.880;60.616;2023-07-30T03:04:20;23.95;;;16.00;;
81967;SDS011;71468;56.880;60.616;2023-07-30T03:06:46;21.48;;;15.30;;
81967;SDS011;71468;56.880;60.616;2023-07-30T03:09:13;22.42;;;15.10;;
81967;SDS011;71468;56.880;60.616;2023-07-30T03:11:39;23.85;;;15.70;;
81967;SDS011;71468;56.880;60.616;2023-07-30T03:14:06;22.10;;;15.48;;
81967;SDS011;71468;56.880;60.616;2023-07-30T03:16:33;20.15;;;14.60;;
81967;SDS011;71468;56.880;60.616;2023-07-30T03:18:59;23.05;;;14.70;;
81967;SDS011;71468;56.880;60.616;2023-07-30T03:21:26;21.80;;;14.25;;
81967;SDS011;71468;56.880;60.616;2023-07-30T03:23:52;18.73;;;13.75;;
81967;SDS011;71468;56.880;60.616;2023-07-30T03:26:19;21.67;;;13.88;;
81967;SDS011;71468;56.880;60.616;2023-07-30T03:28:45;24.25;;;13.25;;
81967;SDS011;71468;56.880;60.616;2023-07-30T03:31:11;18.75;;;13.02;;
81967;SDS011;71468;56.880;60.616;2023-07-30T03:33:39;18.60;;;12.40;;
81967;SDS011;71468;56.880;60.616;2023-07-30T03:36:10;20.10;;;13.18;;
81967;SDS011;71468;56.880;60.616;2023-07-30T03:38:37;23.10;;;13.45;;
81967;SDS011;71468;56.880;60.616;2023-07-30T03:41:04;23.50;;;13.82;;
81967;SDS011;71468;56.880;60.616;2023-07-30T03:43:32;20.80;;;12.75;;
81967;SDS011;71468;56.880;60.616;2023-07-30T03:45:59;16.92;;;11.75;;
81967;SDS011;71468;56.880;60.616;2023-07-30T03:48:26;18.60;;;12.55;;
81967;SDS011;71468;56.880;60.616;2023-07-30T03:50:53;16.60;;;11.70;;
81967;SDS011;71468;56.880;60.616;2023-07-30T03:53:20;21.63;;;12.13;;
81967;SDS011;71468;56.880;60.616;2023-07-30T03:55:47;19.52;;;13.05;;
81967;SDS011;71468;56.880;60.616;2023-07-30T03:58:14;19.05;;;11.82;;
81967;SDS011;71468;56.880;60.616;2023-07-30T04:00:41;18.27;;;11.75;;
81967;SDS011;71468;56.880;60.616;2023-07-30T04:03:08;20.75;;;11.45;;
81967;SDS011;71468;56.880;60.616;2023-07-30T04:05:34;21.25;;;10.45;;
81967;SDS011;71468;56.880;60.616;2023-07-30T04:08:01;15.52;;;9.73;;
81967;SDS011;71468;56.880;60.616;2023-07-30T04:10:28;17.65;;;9.65;;
81967;SDS011;71468;56.880;60.616;2023-07-30T04:12:55;14.38;;;9.15;;
81967;SDS011;71468;56.880;60.616;2023-07-30T04:15:22;14.07;;;9.35;;
81967;SDS011;71468;56.880;60.616;2023-07-30T04:17:49;15.57;;;9.30;;
81967;SDS011;71468;56.880;60.616;2023-07-30T04:20:16;13.40;;;8.20;;
81967;SDS011;71468;56.880;60.616;2023-07-30T04:22:43;15.07;;;8.50;;
81967;SDS011;71468;56.880;60.616;2023-07-30T04:25:10;16.33;;;8.50;;
81967;SDS011;71468;56.880;60.616;2023-07-30T04:27:37;14.05;;;8.68;;
81967;SDS011;71468;56.880;60.616;2023-07-30T04:30:04;12.13;;;8.25;;
81967;SDS011;71468;56.880;60.616;2023-07-30T04:32:31;16.67;;;10.18;;
81967;SDS011;71468;56.880;60.616;2023-07-30T04:34:58;16.38;;;9.73;;
81967;SDS011;71468;56.880;60.616;2023-07-30T04:37:24;15.52;;;10.40;;
81967;SDS011;71468;56.880;60.616;2023-07-30T04:39:53;14.75;;;10.07;;
81967;SDS011;71468;56.880;60.616;2023-07-30T04:42:20;16.98;;;9.52;;
81967;SDS011;71468;56.880;60.616;2023-07-30T04:44:47;11.88;;;8.68;;
81967;SDS011;71468;56.880;60.616;2023-07-30T04:47:16;13.38;;;8.98;;
81967;SDS011;71468;56.880;60.616;2023-07-30T04:49:42;17.52;;;9.23;;
81967;SDS011;71468;56.880;60.616;2023-07-30T04:52:10;13.65;;;9.27;;
81967;SDS011;71468;56.880;60.616;2023-07-30T04:54:36;10.93;;;8.63;;
81967;SDS011;71468;56.880;60.616;2023-07-30T04:57:04;12.02;;;8.48;;
81967;SDS011;71468;56.880;60.616;2023-07-30T04:59:31;13.88;;;8.18;;
81967;SDS011;71468;56.880;60.616;2023-07-30T05:01:59;16.50;;;8.48;;
81967;SDS011;71468;56.880;60.616;2023-07-30T05:04:27;8.65;;;6.57;;
81967;SDS011;71468;56.880;60.616;2023-07-30T05:06:53;10.38;;;6.55;;
81967;SDS011;71468;56.880;60.616;2023-07-30T05:09:20;10.77;;;6.65;;
81967;SDS011;71468;56.880;60.616;2023-07-30T05:11:46;8.90;;;6.47;;
81967;SDS011;71468;56.880;60.616;2023-07-30T05:14:13;13.95;;;6.75;;
81967;SDS011;71468;56.880;60.616;2023-07-30T05:16:39;8.90;;;6.05;;
81967;SDS011;71468;56.880;60.616;2023-07-30T05:19:06;13.18;;;6.97;;
81967;SDS011;71468;56.880;60.616;2023-07-30T05:21:32;8.80;;;6.57;;
81967;SDS011;71468;56.880;60.616;2023-07-30T05:23:59;9.52;;;6.63;;
81967;SDS011;71468;56.880;60.616;2023-07-30T05:26:25;16.20;;;7.28;;
81967;SDS011;71468;56.880;60.616;2023-07-30T05:28:52;9.75;;;7.35;;
81967;SDS011;71468;56.880;60.616;2023-07-30T05:31:18;13.88;;;7.22;;
81967;SDS011;71468;56.880;60.616;2023-07-30T05:33:45;11.73;;;7.85;;
81967;SDS011;71468;56.880;60.616;2023-07-30T05:36:11;9.02;;;7.18;;
81967;SDS011;71468;56.880;60.616;2023-07-30T05:38:38;9.05;;;7.03;;
81967;SDS011;71468;56.880;60.616;2023-07-30T05:41:04;10.60;;;7.15;;
81967;SDS011;71468;56.880;60.616;2023-07-30T05:43:31;10.82;;;7.28;;
81967;SDS011;71468;56.880;60.616;2023-07-30T05:45:58;9.48;;;6.57;;
81967;SDS011;71468;56.880;60.616;2023-07-30T05:48:24;9.68;;;7.22;;
81967;SDS011;71468;56.880;60.616;2023-07-30T05:50:51;10.23;;;6.97;;
81967;SDS011;71468;56.880;60.616;2023-07-30T05:53:18;10.25;;;7.13;;
81967;SDS011;71468;56.880;60.616;2023-07-30T05:55:44;10.38;;;6.55;;
81967;SDS011;71468;56.880;60.616;2023-07-30T05:58:11;12.68;;;7.45;;
81967;SDS011;71468;56.880;60.616;2023-07-30T06:00:37;9.48;;;6.78;;
81967;SDS011;71468;56.880;60.616;2023-07-30T06:03:04;10.57;;;7.72;;
81967;SDS011;71468;56.880;60.616;2023-07-30T06:05:32;10.45;;;7.85;;
81967;SDS011;71468;56.880;60.616;2023-07-30T06:07:58;10.52;;;7.50;;
81967;SDS011;71468;56.880;60.616;2023-07-30T06:10:25;12.32;;;6.85;;
81967;SDS011;71468;56.880;60.616;2023-07-30T06:12:52;12.73;;;7.78;;
81967;SDS011;71468;56.880;60.616;2023-07-30T06:15:18;9.60;;;7.13;;
81967;SDS011;71468;56.880;60.616;2023-07-30T06:17:45;10.80;;;7.60;;
81967;SDS011;71468;56.880;60.616;2023-07-30T06:20:11;12.25;;;8.73;;
81967;SDS011;71468;56.880;60.616;2023-07-30T06:22:38;11.15;;;7.47;;
81967;SDS011;71468;56.880;60.616;2023-07-30T06:25:04;11.50;;;7.35;;
81967;SDS011;71468;56.880;60.616;2023-07-30T06:27:32;13.18;;;9.10;;
81967;SDS011;71468;56.880;60.616;2023-07-30T06:29:58;11.63;;;8.35;;
81967;SDS011;71468;56.880;60.616;2023-07-30T06:32:25;11.88;;;9.18;;
81967;SDS011;71468;56.880;60.616;2023-07-30T06:34:52;10.55;;;8.05;;
81967;SDS011;71468;56.880;60.616;2023-07-30T06:37:18;10.30;;;8.05;;
81967;SDS011;71468;56.880;60.616;2023-07-30T06:39:45;11.65;;;7.93;;
81967;SDS011;71468;56.880;60.616;2023-07-30T06:42:11;12.07;;;8.15;;
81967;SDS011;71468;56.880;60.616;2023-07-30T06:44:38;12.20;;;7.90;;
81967;SDS011;71468;56.880;60.616;2023-07-30T06:47:04;15.18;;;8.60;;
81967;SDS011;71468;56.880;60.616;2023-07-30T06:49:30;11.95;;;9.05;;
81967;SDS011;71468;56.880;60.616;2023-07-30T06:52:00;11.30;;;8.38;;
81967;SDS011;71468;56.880;60.616;2023-07-30T06:54:27;13.27;;;7.75;;
81967;SDS011;71468;56.880;60.616;2023-07-30T06:56:54;12.23;;;8.10;;
81967;SDS011;71468;56.880;60.616;2023-07-30T06:59:20;13.90;;;8.25;;
81967;SDS011;71468;56.880;60.616;2023-07-30T07:01:47;11.60;;;8.15;;
81967;SDS011;71468;56.880;60.616;2023-07-30T07:04:13;10.98;;;8.20;;
81967;SDS011;71468;56.880;60.616;2023-07-30T07:06:41;12.70;;;8.95;;
81967;SDS011;71468;56.880;60.616;2023-07-30T07:09:07;13.25;;;8.82;;
81967;SDS011;71468;56.880;60.616;2023-07-30T07:11:34;12.63;;;9.43;;
81967;SDS011;71468;56.880;60.616;2023-07-30T07:14:00;13.75;;;9.43;;
81967;SDS011;71468;56.880;60.616;2023-07-30T07:16:27;11.38;;;8.57;;
81967;SDS011;71468;56.880;60.616;2023-07-30T07:18:53;13.00;;;10.45;;
81967;SDS011;71468;56.880;60.616;2023-07-30T07:21:20;14.30;;;10.27;;
81967;SDS011;71468;56.880;60.616;2023-07-30T07:23:46;14.30;;;10.65;;
81967;SDS011;71468;56.880;60.616;2023-07-30T07:26:13;13.90;;;10.75;;
81967;SDS011;71468;56.880;60.616;2023-07-30T07:28:40;17.85;;;11.68;;
81967;SDS011;71468;56.880;60.616;2023-07-30T07:31:06;14.90;;;10.32;;
81967;SDS011;71468;56.880;60.616;2023-07-30T07:33:33;15.93;;;11.52;;
81967;SDS011;71468;56.880;60.616;2023-07-30T07:36:07;16.13;;;11.30;;
81967;SDS011;71468;56.880;60.616;2023-07-30T07:38:34;17.10;;;12.27;;
81967;SDS011;71468;56.880;60.616;2023-07-30T07:41:01;15.48;;;10.75;;
81967;SDS011;71468;56.880;60.616;2023-07-30T07:43:27;15.77;;;12.27;;
81967;SDS011;71468;56.880;60.616;2023-07-30T07:45:54;16.13;;;11.63;;
81967;SDS011;71468;56.880;60.616;2023-07-30T07:48:20;15.85;;;12.05;;
81967;SDS011;71468;56.880;60.616;2023-07-30T07:50:47;16.23;;;11.43;;
81967;SDS011;71468;56.880;60.616;2023-07-30T07:53:14;16.60;;;11.93;;
81967;SDS011;71468;56.880;60.616;2023-07-30T07:55:40;18.65;;;11.63;;
81967;SDS011;71468;56.880;60.616;2023-07-30T07:58:07;11.98;;;10.23;;
81967;SDS011;71468;56.880;60.616;2023-07-30T08:00:34;15.18;;;11.40;;
81967;SDS011;71468;56.880;60.616;2023-07-30T08:03:00;19.38;;;11.40;;
81967;SDS011;71468;56.880;60.616;2023-07-30T08:05:27;13.90;;;10.82;;
81967;SDS011;71468;56.880;60.616;2023-07-30T08:07:53;13.75;;;10.60;;
81967;SDS011;71468;56.880;60.616;2023-07-30T08:10:20;13.98;;;10.95;;
81967;SDS011;71468;56.880;60.616;2023-07-30T08:12:47;15.90;;;11.00;;
81967;SDS011;71468;56.880;60.616;2023-07-30T08:15:14;14.07;;;10.50;;
81967;SDS011;71468;56.880;60.616;2023-07-30T08:17:41;17.85;;;9.93;;
81967;SDS011;71468;56.880;60.616;2023-07-30T08:20:07;13.70;;;9.70;;
81967;SDS011;71468;56.880;60.616;2023-07-30T08:22:34;13.32;;;9.45;;
81967;SDS011;71468;56.880;60.616;2023-07-30T08:25:01;15.25;;;10.27;;
81967;SDS011;71468;56.880;60.616;2023-07-30T08:27:28;18.95;;;10.65;;
81967;SDS011;71468;56.880;60.616;2023-07-30T08:29:55;14.82;;;9.82;;
81967;SDS011;71468;56.880;60.616;2023-07-30T08:32:22;12.70;;;8.35;;
81967;SDS011;71468;56.880;60.616;2023-07-30T08:34:48;12.30;;;9.23;;
81967;SDS011;71468;56.880;60.616;2023-07-30T08:37:15;15.43;;;9.20;;
81967;SDS011;71468;56.880;60.616;2023-07-30T08:39:42;13.05;;;9.70;;
81967;SDS011;71468;56.880;60.616;2023-07-30T08:42:08;11.85;;;8.60;;
81967;SDS011;71468;56.880;60.616;2023-07-30T08:44:34;14.90;;;9.27;;
81967;SDS011;71468;56.880;60.616;2023-07-30T08:47:01;18.65;;;9.48;;
81967;SDS011;71468;56.880;60.616;2023-07-30T08:49:28;11.98;;;8.88;;
81967;SDS011;71468;56.880;60.616;2023-07-30T08:51:59;10.93;;;9.27;;
81967;SDS011;71468;56.880;60.616;2023-07-30T08:54:26;13.48;;;9.00;;
81967;SDS011;71468;56.880;60.616;2023-07-30T08:56:55;15.93;;;9.55;;
81967;SDS011;71468;56.880;60.616;2023-07-30T08:59:23;13.82;;;9.05;;
81967;SDS011;71468;56.880;60.616;2023-07-30T09:01:51;14.52;;;9.32;;
81967;SDS011;71468;56.880;60.616;2023-07-30T09:04:18;16.33;;;9.70;;
81967;SDS011;71468;56.880;60.616;2023-07-30T09:06:47;15.55;;;9.73;;
81967;SDS011;71468;56.880;60.616;2023-07-30T09:09:15;14.73;;;9.52;;
81967;SDS011;71468;56.880;60.616;2023-07-30T09:11:41;13.05;;;9.55;;
81967;SDS011;71468;56.880;60.616;2023-07-30T09:14:08;12.50;;;9.73;;
81967;SDS011;71468;56.880;60.616;2023-07-30T09:16:35;13.13;;;9.32;;
81967;SDS011;71468;56.880;60.616;2023-07-30T09:19:02;18.27;;;10.20;;
81967;SDS011;71468;56.880;60.616;2023-07-30T09:21:29;14.35;;;9.40;;
81967;SDS011;71468;56.880;60.616;2023-07-30T09:23:57;14.30;;;9.55;;
81967;SDS011;71468;56.880;60.616;2023-07-30T09:26:26;13.63;;;9.52;;
81967;SDS011;71468;56.880;60.616;2023-07-30T09:28:52;12.35;;;9.30;;
81967;SDS011;71468;56.880;60.616;2023-07-30T09:31:21;14.43;;;8.98;;
81967;SDS011;71468;56.880;60.616;2023-07-30T09:33:48;12.25;;;8.48;;
81967;SDS011;71468;56.880;60.616;2023-07-30T09:36:14;11.95;;;9.00;;
81967;SDS011;71468;56.880;60.616;2023-07-30T09:38:42;14.77;;;9.00;;
81967;SDS011;71468;56.880;60.616;2023-07-30T09:41:08;12.50;;;9.10;;
81967;SDS011;71468;56.880;60.616;2023-07-30T09:43:39;14.82;;;9.57;;
81967;SDS011;71468;56.880;60.616;2023-07-30T09:46:06;14.48;;;9.55;;
81967;SDS011;71468;56.880;60.616;2023-07-30T09:48:33;15.30;;;9.13;;
81967;SDS011;71468;56.880;60.616;2023-07-30T09:51:01;13.48;;;8.95;;
81967;SDS011;71468;56.880;60.616;2023-07-30T09:53:29;14.43;;;8.98;;
81967;SDS011;71468;56.880;60.616;2023-07-30T09:56:03;13.63;;;9.13;;
81967;SDS011;71468;56.880;60.616;2023-07-30T09:58:32;12.90;;;8.60;;
81967;SDS011;71468;56.880;60.616;2023-07-30T10:00:58;11.93;;;9.30;;
81967;SDS011;71468;56.880;60.616;2023-07-30T10:03:28;14.32;;;8.93;;
81967;SDS011;71468;56.880;60.616;2023-07-30T10:05:58;13.93;;;8.70;;
81967;SDS011;71468;56.880;60.616;2023-07-30T10:08:29;11.20;;;8.40;;
81967;SDS011;71468;56.880;60.616;2023-07-30T10:10:58;9.90;;;8.75;;
81967;SDS011;71468;56.880;60.616;2023-07-30T10:13:26;10.75;;;8.85;;
81967;SDS011;71468;56.880;60.616;2023-07-30T10:15:54;9.52;;;8.38;;
81967;SDS011;71468;56.880;60.616;2023-07-30T10:18:26;12.55;;;8.98;;
81967;SDS011;71468;56.880;60.616;2023-07-30T10:21:00;13.00;;;7.97;;
81967;SDS011;71468;56.880;60.616;2023-07-30T10:23:32;9.30;;;8.23;;
81967;SDS011;71468;56.880;60.616;2023-07-30T10:25:58;11.32;;;8.10;;
81967;SDS011;71468;56.880;60.616;2023-07-30T10:28:26;11.35;;;8.10;;
81967;SDS011;71468;56.880;60.616;2023-07-30T10:31:05;12.32;;;8.00;;
81967;SDS011;71468;56.880;60.616;2023-07-30T10:33:46;10.63;;;7.65;;
81967;SDS011;71468;56.880;60.616;2023-07-30T10:36:13;11.07;;;8.35;;
81967;SDS011;71468;56.880;60.616;2023-07-30T10:38:40;10.07;;;7.15;;
81967;SDS011;71468;56.880;60.616;2023-07-30T10:43:39;12.15;;;7.32;;
81967;SDS011;71468;56.880;60.616;2023-07-30T10:46:05;9.95;;;7.40;;
81967;SDS011;71468;56.880;60.616;2023-07-30T10:48:37;10.93;;;7.68;;
81967;SDS011;71468;56.880;60.616;2023-07-30T10:51:08;9.90;;;7.35;;
81967;SDS011;71468;56.880;60.616;2023-07-30T10:53:36;10.25;;;7.32;;
81967;SDS011;71468;56.880;60.616;2023-07-30T10:56:03;9.90;;;7.38;;
81967;SDS011;71468;56.880;60.616;2023-07-30T10:58:31;10.30;;;7.13;;
81967;SDS011;71468;56.880;60.616;2023-07-30T11:00:58;9.30;;;7.20;;
81967;SDS011;71468;56.880;60.616;2023-07-30T11:03:26;8.95;;;6.78;;
81967;SDS011;71468;56.880;60.616;2023-07-30T11:05:53;13.45;;;7.53;;
81967;SDS011;71468;56.880;60.616;2023-07-30T11:08:36;9.35;;;6.63;;
81967;SDS011;71468;56.880;60.616;2023-07-30T11:11:05;10.73;;;6.95;;
81967;SDS011;71468;56.880;60.616;2023-07-30T11:13:39;7.88;;;5.88;;
81967;SDS011;71468;56.880;60.616;2023-07-30T11:16:07;9.23;;;6.40;;
81967;SDS011;71468;56.880;60.616;2023-07-30T11:18:35;8.85;;;6.97;;
81967;SDS011;71468;56.880;60.616;2023-07-30T11:21:06;12.00;;;7.22;;
81967;SDS011;71468;56.880;60.616;2023-07-30T11:23:33;12.80;;;6.28;;
81967;SDS011;71468;56.880;60.616;2023-07-30T11:26:01;8.07;;;6.47;;
81967;SDS011;71468;56.880;60.616;2023-07-30T11:31:00;9.27;;;6.28;;
81967;SDS011;71468;56.880;60.616;2023-07-30T11:33:27;11.68;;;6.65;;
81967;SDS011;71468;56.880;60.616;2023-07-30T11:35:55;9.05;;;5.63;;
81967;SDS011;71468;56.880;60.616;2023-07-30T11:38:23;9.80;;;6.22;;
81967;SDS011;71468;56.880;60.616;2023-07-30T11:40:50;8.02;;;6.28;;
81967;SDS011;71468;56.880;60.616;2023-07-30T11:43:17;10.60;;;6.13;;
81967;SDS011;71468;56.880;60.616;2023-07-30T11:45:44;10.13;;;5.82;;
81967;SDS011;71468;56.880;60.616;2023-07-30T11:48:11;8.43;;;6.40;;
81967;SDS011;71468;56.880;60.616;2023-07-30T11:50:45;9.32;;;6.28;;
81967;SDS011;71468;56.880;60.616;2023-07-30T11:53:12;8.90;;;5.95;;
81967;SDS011;71468;56.880;60.616;2023-07-30T11:55:39;9.98;;;6.15;;
81967;SDS011;71468;56.880;60.616;2023-07-30T11:58:07;10.68;;;6.50;;
81967;SDS011;71468;56.880;60.616;2023-07-30T12:00:41;8.90;;;5.82;;
81967;SDS011;71468;56.880;60.616;2023-07-30T12:03:10;8.77;;;5.45;;
81967;SDS011;71468;56.880;60.616;2023-07-30T12:05:38;11.52;;;6.00;;
81967;SDS011;71468;56.880;60.616;2023-07-30T12:08:06;8.93;;;5.63;;
81967;SDS011;71468;56.880;60.616;2023-07-30T12:10:43;10.70;;;5.60;;
81967;SDS011;71468;56.880;60.616;2023-07-30T12:13:19;8.13;;;5.53;;
81967;SDS011;71468;56.880;60.616;2023-07-30T12:15:52;9.93;;;6.25;;
81967;SDS011;71468;56.880;60.616;2023-07-30T12:18:20;7.85;;;5.88;;
81967;SDS011;71468;56.880;60.616;2023-07-30T12:20:47;6.68;;;5.43;;
81967;SDS011;71468;56.880;60.616;2023-07-30T12:23:14;8.80;;;5.78;;
81967;SDS011;71468;56.880;60.616;2023-07-30T12:25:40;9.25;;;5.90;;
81967;SDS011;71468;56.880;60.616;2023-07-30T12:28:07;8.25;;;6.22;;
81967;SDS011;71468;56.880;60.616;2023-07-30T12:30:33;9.13;;;6.10;;
81967;SDS011;71468;56.880;60.616;2023-07-30T12:33:02;8.43;;;5.85;;
81967;SDS011;71468;56.880;60.616;2023-07-30T12:35:30;9.25;;;5.40;;
81967;SDS011;71468;56.880;60.616;2023-07-30T12:37:57;8.60;;;6.15;;
81967;SDS011;71468;56.880;60.616;2023-07-30T12:40:24;7.55;;;5.70;;
81967;SDS011;71468;56.880;60.616;2023-07-30T12:42:50;12.23;;;6.32;;
81967;SDS011;71468;56.880;60.616;2023-07-30T12:45:17;9.63;;;5.65;;
81967;SDS011;71468;56.880;60.616;2023-07-30T12:47:43;5.95;;;5.05;;
81967;SDS011;71468;56.880;60.616;2023-07-30T12:50:11;7.22;;;5.78;;
81967;SDS011;71468;56.880;60.616;2023-07-30T12:52:38;10.60;;;6.32;;
81967;SDS011;71468;56.880;60.616;2023-07-30T12:55:04;7.57;;;5.50;;
81967;SDS011;71468;56.880;60.616;2023-07-30T12:57:32;8.93;;;5.75;;
81967;SDS011;71468;56.880;60.616;2023-07-30T12:59:58;8.32;;;5.75;;
81967;SDS011;71468;56.880;60.616;2023-07-30T13:02:25;7.70;;;4.75;;
81967;SDS011;71468;56.880;60.616;2023-07-30T13:04:51;6.30;;;5.18;;
81967;SDS011;71468;56.880;60.616;2023-07-30T13:07:18;7.28;;;5.70;;
81967;SDS011;71468;56.880;60.616;2023-07-30T13:09:45;6.82;;;5.18;;
81967;SDS011;71468;56.880;60.616;2023-07-30T13:12:13;11.40;;;5.65;;
81967;SDS011;71468;56.880;60.616;2023-07-30T13:14:40;7.70;;;5.47;;
81967;SDS011;71468;56.880;60.616;2023-07-30T13:17:06;6.50;;;5.10;;
81967;SDS011;71468;56.880;60.616;2023-07-30T13:19:33;8.13;;;5.53;;
81967;SDS011;71468;56.880;60.616;2023-07-30T13:22:01;8.98;;;5.55;;
81967;SDS011;71468;56.880;60.616;2023-07-30T13:24:27;8.32;;;5.57;;
81967;SDS011;71468;56.880;60.616;2023-07-30T13:26:55;7.13;;;5.40;;
81967;SDS011;71468;56.880;60.616;2023-07-30T13:29:22;10.77;;;5.90;;
81967;SDS011;71468;56.880;60.616;2023-07-30T13:31:49;8.25;;;5.40;;
81967;SDS011;71468;56.880;60.616;2023-07-30T13:34:15;9.02;;;5.57;;
81967;SDS011;71468;56.880;60.616;2023-07-30T13:36:41;9.35;;;5.90;;
81967;SDS011;71468;56.880;60.616;2023-07-30T13:39:08;8.50;;;5.75;;
81967;SDS011;71468;56.880;60.616;2023-07-30T13:41:34;8.25;;;5.55;;
81967;SDS011;71468;56.880;60.616;2023-07-30T13:44:01;9.43;;;5.45;;
81967;SDS011;71468;56.880;60.616;2023-07-30T13:46:27;8.45;;;5.85;;
81967;SDS011;71468;56.880;60.616;2023-07-30T13:48:54;7.25;;;5.63;;
81967;SDS011;71468;56.880;60.616;2023-07-30T13:51:20;13.48;;;7.55;;
81967;SDS011;71468;56.880;60.616;2023-07-30T13:53:47;7.25;;;5.40;;
81967;SDS011;71468;56.880;60.616;2023-07-30T13:56:14;9.38;;;5.28;;
81967;SDS011;71468;56.880;60.616;2023-07-30T13:58:40;9.13;;;6.18;;
81967;SDS011;71468;56.880;60.616;2023-07-30T14:01:07;7.53;;;5.55;;
81967;SDS011;71468;56.880;60.616;2023-07-30T14:03:35;8.98;;;5.57;;
81967;SDS011;71468;56.880;60.616;2023-07-30T14:06:01;8.23;;;5.75;;
81967;SDS011;71468;56.880;60.616;2023-07-30T14:08:28;7.88;;;5.43;;
81967;SDS011;71468;56.880;60.616;2023-07-30T14:10:55;8.35;;;5.93;;
81967;SDS011;71468;56.880;60.616;2023-07-30T14:13:23;9.93;;;5.63;;
81967;SDS011;71468;56.880;60.616;2023-07-30T14:15:50;8.05;;;5.53;;
81967;SDS011;71468;56.880;60.616;2023-07-30T14:18:16;9.48;;;5.75;;
81967;SDS011;71468;56.880;60.616;2023-07-30T14:20:43;10.82;;;5.50;;
81967;SDS011;71468;56.880;60.616;2023-07-30T14:23:09;10.38;;;5.97;;
81967;SDS011;71468;56.880;60.616;2023-07-30T14:25:37;9.68;;;5.88;;